Airfield :
LOGIN :

Register | Disclaimer

   EN    FR    IT 

 










Legend :    VFR   Marginal VFR   IFR   Intensive IFR   Very Intensive IFR
Visi :
Ceiling :
>= 8 km
>= 3000ft
5 to 8 km
1000 to 3000 ft
1500m to 5 km
500 to 1000 ft
800 to 1500m
200 to 500 ft
< 800m
< 200 ft
Symbols :   Thunderstorms  Fog  Heavy snow  Heavy precipitations  Wind > 20 kt
SIGMETs :     Misc.  Thunderstorms  Icing  Turbulence  Mountain Waves  Volcanic Ashes






- Airport Elevation : -11 ft
- IATA code : AMS


EHAM - Amsterdam Schiphol

CURRENT METAR :
  • 170325Z 24025G35KT 210V270 CAVOK 07/02 Q1007 NOSIG

EXPIRED METARs :
  • 170255Z 24025G37KT 210V280 9999 FEW032 08/02 Q1007 NOSIG
  • 170225Z 24023G34KT 210V270 9999 FEW030 08/02 Q1006 NOSIG
  • 170155Z 23026G38KT 9999 FEW025 08/03 Q1005 NOSIG
  • 170125Z 24025G36KT CAVOK 08/02 Q1004 NOSIG
  • 170055Z 23027G37KT 210V270 9999 FEW040 08/03 Q1004 NOSIG

TAF TAF EHAM
Valid from the 17 at 00:00 until the 18 at 06:00 UTC


162317Z 1700/1806 24025G37KT 9999 SCT030
PROB30
TEMPO 1700/1709 7000 -SHRA SCT020CB
BECMG 1704/1707 22020G30KT
TEMPO 1709/1720 6000 -SHRA SCT020CB
PROB30
TEMPO 1710/1718 23025G38KT 4000 SHRAGS SCT015CB BKN018
BECMG 1715/1718 24018KT
PROB30
TEMPO 1720/1802 6000 -SHRA SCT020CB BKN025
BECMG 1721/1724 26020G30KT
BECMG 1803/1806 25018KT



MET'MAP, your aeronautical weather chart ! - Copyright ORBIFLY December 2007 - Disclaimer

ORBIFLY MET'MAP TEAM :

Programming & Development : Alexandra Zaïnal
Concept & original design : Baudouin d'Aumeries
Assistance for programming : Marc-Olivier Méhu
Technical & hardware support : Manuel Goepfert

Contact : metmap@orbifly.com




SOURCES & CREDITS :

   NOAA